createdAt,value
2023-05-03T00:02:10.565Z,5.47
2023-05-03T00:04:37.348Z,5.45
2023-05-03T00:07:04.264Z,5.51
2023-05-03T00:09:33.641Z,5.47
2023-05-03T00:12:00.423Z,5.35
2023-05-03T00:14:27.469Z,5.44
2023-05-03T00:16:56.403Z,5.45
2023-05-03T00:19:31.609Z,5.50
2023-05-03T00:21:58.880Z,5.46
2023-05-03T00:24:25.634Z,5.48
2023-05-03T00:26:53.750Z,5.44
2023-05-03T00:29:20.799Z,5.61
2023-05-03T00:31:47.618Z,5.61
2023-05-03T00:34:14.622Z,5.50
2023-05-03T00:36:41.586Z,5.41
2023-05-03T00:39:08.346Z,5.41
2023-05-03T00:41:35.510Z,5.37
2023-05-03T00:44:03.756Z,5.46
2023-05-03T00:46:30.808Z,5.54
2023-05-03T00:48:58.002Z,5.49
2023-05-03T00:51:27.009Z,5.42
2023-05-03T00:53:54.066Z,5.50
2023-05-03T00:56:20.921Z,5.46
2023-05-03T00:58:47.770Z,5.37
2023-05-03T01:01:16.658Z,5.32
2023-05-03T01:03:44.437Z,5.27
2023-05-03T01:06:17.997Z,5.37
2023-05-03T01:08:51.424Z,5.37
2023-05-03T01:11:23.921Z,5.42
2023-05-03T01:13:56.447Z,5.46
2023-05-03T01:16:34.424Z,5.47
2023-05-03T01:19:06.738Z,5.48
2023-05-03T01:21:34.091Z,5.58
2023-05-03T01:24:10.559Z,5.51
2023-05-03T01:26:39.242Z,5.40
2023-05-03T01:29:06.787Z,5.42
2023-05-03T01:31:39.265Z,5.32
2023-05-03T01:34:20.459Z,5.47
2023-05-03T01:36:49.493Z,5.44
2023-05-03T01:39:25.929Z,5.32
2023-05-03T01:41:55.036Z,5.29
2023-05-03T01:44:23.501Z,5.32
2023-05-03T01:46:50.332Z,5.30
2023-05-03T01:49:17.219Z,5.36
2023-05-03T01:51:44.015Z,5.34
2023-05-03T01:54:10.936Z,5.39
2023-05-03T01:56:38.569Z,5.31
2023-05-03T01:59:06.753Z,5.35
2023-05-03T02:01:33.737Z,5.37
2023-05-03T02:04:00.764Z,5.31
2023-05-03T02:06:27.773Z,5.23
2023-05-03T02:08:54.845Z,5.18
2023-05-03T02:11:21.764Z,5.19
2023-05-03T02:13:49.204Z,5.33
2023-05-03T02:16:17.605Z,5.31
2023-05-03T02:18:44.499Z,5.28
2023-05-03T02:21:11.431Z,5.27
2023-05-03T02:23:38.224Z,5.25
2023-05-03T02:26:05.381Z,5.31
2023-05-03T02:28:32.329Z,5.34
2023-05-03T02:30:59.181Z,5.28
2023-05-03T02:33:28.800Z,5.32
2023-05-03T02:35:55.658Z,5.35
2023-05-03T02:38:22.452Z,5.25
2023-05-03T02:40:49.196Z,5.25
2023-05-03T02:43:16.084Z,5.46
2023-05-03T02:45:43.265Z,5.44
2023-05-03T02:48:10.228Z,5.41
2023-05-03T02:50:39.014Z,5.43
2023-05-03T02:53:05.851Z,5.33
2023-05-03T02:55:33.869Z,5.43
2023-05-03T02:58:00.804Z,5.39
2023-05-03T03:00:28.089Z,5.34
2023-05-03T03:02:56.088Z,5.29
2023-05-03T03:05:22.972Z,5.26
2023-05-03T03:07:51.270Z,5.15
2023-05-03T03:10:18.270Z,5.34
2023-05-03T03:12:45.771Z,5.37
2023-05-03T03:15:12.585Z,5.25
2023-05-03T03:17:39.510Z,5.19
2023-05-03T03:20:07.408Z,5.19
2023-05-03T03:22:34.301Z,5.22
2023-05-03T03:25:02.713Z,5.28
2023-05-03T03:27:29.436Z,5.24
2023-05-03T03:29:56.180Z,5.30
2023-05-03T03:32:23.115Z,5.44
2023-05-03T03:34:50.118Z,5.34
2023-05-03T03:37:16.920Z,5.36
2023-05-03T03:39:43.786Z,5.27
2023-05-03T03:42:12.574Z,5.21
2023-05-03T03:44:39.472Z,5.19
2023-05-03T03:47:06.794Z,5.21
2023-05-03T03:49:33.680Z,5.19
2023-05-03T03:52:00.504Z,5.15
2023-05-03T03:54:27.327Z,5.16
2023-05-03T03:56:54.116Z,5.19
2023-05-03T03:59:22.368Z,5.09
2023-05-03T04:01:49.185Z,5.03
2023-05-03T04:04:17.183Z,5.02
2023-05-03T04:06:44.106Z,5.08
2023-05-03T04:09:21.188Z,5.08
2023-05-03T04:11:48.064Z,5.19
2023-05-03T04:14:14.917Z,5.24
2023-05-03T04:16:46.124Z,5.36
2023-05-03T04:19:13.900Z,5.36
2023-05-03T04:21:40.621Z,5.36
2023-05-03T04:24:08.068Z,5.30
2023-05-03T04:26:35.850Z,5.23
2023-05-03T04:29:02.845Z,5.25
2023-05-03T04:31:30.209Z,5.20
2023-05-03T04:33:58.858Z,5.21
2023-05-03T04:36:25.683Z,5.25
2023-05-03T04:38:52.445Z,5.25
2023-05-03T04:41:19.356Z,5.25
2023-05-03T04:43:47.000Z,5.26
2023-05-03T04:46:14.007Z,5.33
2023-05-03T04:48:40.830Z,5.37
2023-05-03T04:51:08.978Z,5.38
2023-05-03T04:53:35.963Z,5.50
2023-05-03T04:56:02.842Z,5.57
2023-05-03T04:58:29.768Z,5.57
2023-05-03T05:00:56.639Z,5.59
2023-05-03T05:03:23.789Z,5.66
2023-05-03T05:05:50.690Z,5.67
2023-05-03T05:08:18.962Z,5.76
2023-05-03T05:10:46.245Z,5.84
2023-05-03T05:13:14.839Z,5.92
2023-05-03T05:15:41.816Z,6.01
2023-05-03T05:18:08.625Z,6.07
2023-05-03T05:20:35.464Z,6.11
2023-05-03T05:23:02.283Z,6.13
2023-05-03T05:25:31.339Z,6.16
2023-05-03T05:27:58.599Z,6.12
2023-05-03T05:30:25.474Z,6.16
2023-05-03T05:32:52.720Z,6.16
2023-05-03T05:35:19.813Z,6.22
2023-05-03T05:37:46.822Z,6.26
2023-05-03T05:40:14.270Z,6.33
2023-05-03T05:42:42.519Z,6.38
2023-05-03T05:45:10.239Z,6.43
2023-05-03T05:47:37.113Z,6.50
2023-05-03T05:50:17.686Z,6.45
2023-05-03T05:53:19.726Z,6.49
2023-05-03T05:55:47.015Z,6.52
2023-05-03T05:58:21.592Z,6.57
2023-05-03T06:01:04.056Z,6.66
2023-05-03T06:03:39.009Z,6.77
2023-05-03T06:06:42.025Z,6.84
2023-05-03T06:09:35.352Z,6.95
2023-05-03T06:12:02.555Z,7.02
2023-05-03T06:14:30.708Z,7.04
2023-05-03T06:16:57.533Z,7.05
2023-05-03T06:19:25.556Z,7.06
2023-05-03T06:21:52.567Z,7.07
2023-05-03T06:24:20.141Z,6.97
2023-05-03T06:26:47.374Z,6.91
2023-05-03T06:29:16.634Z,6.95
2023-05-03T06:31:46.087Z,6.99
2023-05-03T06:34:12.858Z,7.04
2023-05-03T06:36:39.660Z,7.09
2023-05-03T06:39:06.679Z,7.15
2023-05-03T06:41:33.462Z,7.20
2023-05-03T06:44:00.280Z,7.24
2023-05-03T06:46:28.024Z,7.26
2023-05-03T06:48:56.624Z,7.29
2023-05-03T06:51:23.817Z,7.30
2023-05-03T06:53:51.361Z,7.31
2023-05-03T06:56:18.460Z,7.33
2023-05-03T06:58:45.277Z,7.33
2023-05-03T07:01:12.095Z,7.34
2023-05-03T07:03:42.064Z,7.35
2023-05-03T07:06:11.142Z,7.33
2023-05-03T07:08:40.684Z,7.38
2023-05-03T07:11:07.793Z,7.46
2023-05-03T07:13:34.642Z,7.51
2023-05-03T07:16:03.507Z,7.57
2023-05-03T07:18:30.615Z,7.59
2023-05-03T07:20:57.345Z,7.63
2023-05-03T07:23:26.140Z,7.63
2023-05-03T07:25:53.408Z,7.62
2023-05-03T07:28:20.371Z,7.63
2023-05-03T07:30:47.820Z,7.61
2023-05-03T07:33:15.142Z,7.61
2023-05-03T07:35:42.292Z,7.62
2023-05-03T07:38:09.235Z,7.61
2023-05-03T07:40:41.485Z,7.64
2023-05-03T07:43:08.285Z,7.66
2023-05-03T07:45:35.305Z,7.68
2023-05-03T07:48:03.505Z,7.72
2023-05-03T07:50:31.096Z,7.75
2023-05-03T07:52:58.215Z,7.78
2023-05-03T07:55:25.533Z,7.76
2023-05-03T07:57:53.825Z,7.72
2023-05-03T08:00:21.074Z,7.71
2023-05-03T08:02:50.238Z,7.68
2023-05-03T08:05:17.437Z,7.69
2023-05-03T08:07:45.156Z,7.67
2023-05-03T08:10:12.078Z,7.64
2023-05-03T08:12:39.060Z,7.59
2023-05-03T08:15:11.865Z,7.64
2023-05-03T08:17:43.589Z,7.66
2023-05-03T08:20:16.171Z,7.67
2023-05-03T08:22:43.156Z,7.68
2023-05-03T08:25:10.508Z,7.68
2023-05-03T08:27:37.449Z,7.69
2023-05-03T08:30:05.761Z,7.72
2023-05-03T08:32:35.115Z,7.72
2023-05-03T08:35:01.945Z,7.71
2023-05-03T08:37:28.674Z,7.69
2023-05-03T08:39:55.454Z,7.65
2023-05-03T08:42:23.904Z,7.67
2023-05-03T08:44:54.751Z,7.70
2023-05-03T08:47:21.664Z,7.73
2023-05-03T08:49:53.576Z,7.75
2023-05-03T08:52:20.437Z,7.74
2023-05-03T08:54:47.497Z,7.78
2023-05-03T08:57:15.846Z,7.79
2023-05-03T08:59:50.023Z,7.81
2023-05-03T09:02:17.848Z,7.80
2023-05-03T09:04:45.828Z,7.83
2023-05-03T09:07:14.433Z,7.84
2023-05-03T09:09:41.559Z,7.85
2023-05-03T09:12:08.357Z,7.88
2023-05-03T09:14:43.387Z,7.88
2023-05-03T09:17:17.373Z,7.87
2023-05-03T09:19:51.407Z,7.90
2023-05-03T09:22:20.154Z,7.92
2023-05-03T09:24:54.097Z,7.95
2023-05-03T09:27:21.793Z,7.99
2023-05-03T09:29:49.796Z,7.99
2023-05-03T09:32:17.557Z,8.01
2023-05-03T09:34:45.595Z,8.04
2023-05-03T09:37:13.015Z,8.04
2023-05-03T09:39:43.321Z,8.05
2023-05-03T09:42:12.196Z,8.05
2023-05-03T09:44:44.396Z,8.04
2023-05-03T09:47:11.929Z,8.04
2023-05-03T09:49:39.324Z,8.04
2023-05-03T09:52:11.288Z,8.06
2023-05-03T09:54:38.669Z,8.08
2023-05-03T09:57:09.072Z,8.09
2023-05-03T09:59:37.564Z,8.09
2023-05-03T10:02:06.424Z,8.12
2023-05-03T10:04:43.181Z,8.14
2023-05-03T10:07:14.026Z,8.14
2023-05-03T10:09:44.038Z,8.16
2023-05-03T10:12:13.196Z,8.19
2023-05-03T10:14:41.487Z,8.21
2023-05-03T10:17:49.671Z,8.20
2023-05-03T10:24:27.346Z,8.27
2023-05-03T10:27:17.865Z,8.27
2023-05-03T10:33:27.327Z,8.31
2023-05-03T10:36:49.672Z,8.23
2023-05-03T10:39:53.772Z,8.26
2023-05-03T10:46:55.328Z,8.30
2023-05-03T10:50:00.457Z,8.35
2023-05-03T11:06:33.207Z,8.49
2023-05-03T11:09:00.795Z,8.51
2023-05-03T11:11:27.761Z,8.55
2023-05-03T11:13:54.590Z,8.55
2023-05-03T11:16:21.982Z,8.59
2023-05-03T11:18:49.059Z,8.59
2023-05-03T11:21:16.156Z,8.60
2023-05-03T11:23:45.683Z,8.58
2023-05-03T11:26:13.722Z,8.58
2023-05-03T11:28:41.203Z,8.52
2023-05-03T11:31:09.113Z,8.51
2023-05-03T11:33:37.692Z,8.51
2023-05-03T11:36:05.998Z,8.50
2023-05-03T11:38:34.032Z,8.52
2023-05-03T11:41:13.653Z,8.54
2023-05-03T11:43:43.958Z,8.51
2023-05-03T11:46:11.950Z,8.53
2023-05-03T11:48:39.227Z,8.51
2023-05-03T11:51:09.609Z,8.53
2023-05-03T11:53:39.798Z,8.56
2023-05-03T11:56:11.224Z,8.64
2023-05-03T11:58:49.946Z,8.67
2023-05-03T12:01:17.541Z,8.60
2023-05-03T12:03:44.821Z,8.54
2023-05-03T12:06:13.450Z,8.51
2023-05-03T12:11:10.326Z,8.33
2023-05-03T12:13:40.321Z,8.11
2023-05-03T12:18:49.634Z,7.86
2023-05-03T12:23:50.066Z,7.99
2023-05-03T12:26:19.640Z,8.08
2023-05-03T12:28:47.989Z,8.18
2023-05-03T12:31:17.580Z,8.22
2023-05-03T12:34:00.919Z,8.34
2023-05-03T12:36:35.691Z,8.39
2023-05-03T12:39:09.179Z,8.47
2023-05-03T12:44:10.648Z,8.45
2023-05-03T12:46:38.929Z,8.43
2023-05-03T12:49:07.632Z,8.51
2023-05-03T12:51:35.689Z,8.48
2023-05-03T12:54:03.178Z,8.44
2023-05-03T12:56:32.623Z,8.50
2023-05-03T12:59:31.805Z,8.50
2023-05-03T13:02:40.707Z,8.40
2023-05-03T13:04:56.817Z,8.47
2023-05-03T13:07:28.382Z,8.54
2023-05-03T13:12:28.040Z,8.69
2023-05-03T13:14:56.807Z,8.74
2023-05-03T13:17:24.036Z,8.81
2023-05-03T13:19:51.742Z,8.85
2023-05-03T13:22:18.733Z,8.69
2023-05-03T13:24:47.165Z,8.76
2023-05-03T13:27:14.685Z,8.82
2023-05-03T13:29:41.944Z,8.79
2023-05-03T13:32:10.419Z,8.72
2023-05-03T13:34:37.424Z,8.75
2023-05-03T13:37:04.782Z,8.65
2023-05-03T13:39:32.155Z,8.54
2023-05-03T13:41:59.157Z,8.40
2023-05-03T13:44:26.450Z,8.47
2023-05-03T13:46:53.520Z,8.36
2023-05-03T13:49:21.742Z,8.40
2023-05-03T13:51:48.511Z,8.44
2023-05-03T13:54:15.288Z,8.34
2023-05-03T13:56:42.394Z,8.32
2023-05-03T13:59:09.205Z,8.22
2023-05-03T14:01:36.349Z,8.15
2023-05-03T14:04:03.723Z,8.05
2023-05-03T14:06:33.674Z,8.02
2023-05-03T14:09:00.858Z,8.10
2023-05-03T14:11:27.908Z,8.16
2023-05-03T14:13:57.422Z,8.03
2023-05-03T14:16:36.352Z,8.22
2023-05-03T14:19:06.634Z,8.28
2023-05-03T14:21:35.092Z,8.31
2023-05-03T14:24:01.917Z,8.43
2023-05-03T14:26:28.737Z,8.31
2023-05-03T14:28:55.541Z,8.31
2023-05-03T14:31:22.330Z,8.28
2023-05-03T14:33:49.215Z,8.36
2023-05-03T14:36:16.055Z,8.29
2023-05-03T14:38:44.873Z,8.22
2023-05-03T14:41:12.144Z,7.95
2023-05-03T14:43:38.952Z,7.95
2023-05-03T14:46:05.705Z,7.99
2023-05-03T14:48:32.697Z,8.00
2023-05-03T14:50:59.537Z,8.03
2023-05-03T14:53:26.362Z,7.94
2023-05-03T14:55:54.555Z,7.91
2023-05-03T14:58:21.388Z,7.87
2023-05-03T15:00:48.214Z,7.79
2023-05-03T15:03:15.112Z,7.73
2023-05-03T15:05:46.122Z,7.69
2023-05-03T15:08:14.622Z,7.75
2023-05-03T15:10:41.934Z,7.66
2023-05-03T15:13:10.258Z,7.74
2023-05-03T15:15:37.631Z,7.79
2023-05-03T15:18:05.496Z,7.77
2023-05-03T15:20:32.854Z,7.84
2023-05-03T15:23:00.446Z,7.80
2023-05-03T15:25:27.179Z,7.82
2023-05-03T15:27:53.964Z,7.66
2023-05-03T15:30:22.507Z,7.75
2023-05-03T15:32:49.328Z,7.74
2023-05-03T15:35:16.437Z,7.67
2023-05-03T15:37:43.239Z,7.70
2023-05-03T15:40:11.833Z,7.77
2023-05-03T15:42:39.493Z,7.75
2023-05-03T15:45:07.978Z,7.78
2023-05-03T15:47:36.943Z,7.82
2023-05-03T15:50:07.585Z,7.82
2023-05-03T15:52:34.985Z,7.83
2023-05-03T15:55:01.831Z,7.84
2023-05-03T15:57:30.300Z,7.82
2023-05-03T15:59:57.394Z,7.82
2023-05-03T16:02:24.463Z,7.83
2023-05-03T16:04:52.690Z,7.90
2023-05-03T16:07:19.427Z,7.86
2023-05-03T16:09:46.933Z,7.91
2023-05-03T16:12:14.419Z,7.90
2023-05-03T16:14:41.542Z,7.88
2023-05-03T16:17:08.714Z,7.97
2023-05-03T16:19:35.883Z,8.02
2023-05-03T16:22:04.350Z,7.97
2023-05-03T16:24:31.592Z,8.02
2023-05-03T16:26:58.467Z,8.01
2023-05-03T16:29:25.564Z,8.01
2023-05-03T16:31:52.998Z,7.88
2023-05-03T16:34:20.351Z,7.75
2023-05-03T16:36:47.129Z,7.65
2023-05-03T16:39:15.393Z,7.63
2023-05-03T16:41:42.189Z,7.50
2023-05-03T16:44:09.320Z,7.40
2023-05-03T16:46:37.746Z,7.45
2023-05-03T16:49:05.082Z,7.44
2023-05-03T16:51:32.254Z,7.50
2023-05-03T16:53:59.573Z,7.49
2023-05-03T16:56:28.736Z,7.45
2023-05-03T16:58:55.787Z,7.43
2023-05-03T17:01:23.525Z,7.54
2023-05-03T17:03:50.524Z,7.56
2023-05-03T17:06:17.393Z,7.58
2023-05-03T17:08:44.848Z,7.54
2023-05-03T17:11:13.552Z,7.52
2023-05-03T17:13:42.162Z,7.64
2023-05-03T17:16:11.002Z,7.63
2023-05-03T17:18:38.928Z,7.61
2023-05-03T17:21:06.720Z,7.61
2023-05-03T17:23:35.621Z,7.58
2023-05-03T17:26:02.659Z,7.54
2023-05-03T17:28:30.067Z,7.56
2023-05-03T17:30:59.019Z,7.72
2023-05-03T17:33:26.795Z,7.70
2023-05-03T17:35:54.822Z,7.66
2023-05-03T17:38:21.645Z,7.64
2023-05-03T17:40:48.533Z,7.58
2023-05-03T17:43:15.731Z,7.55
2023-05-03T17:45:43.001Z,7.50
2023-05-03T17:48:11.419Z,7.48
2023-05-03T17:50:38.607Z,7.44
2023-05-03T17:53:05.565Z,7.40
2023-05-03T17:55:34.446Z,7.37
2023-05-03T17:58:01.155Z,7.42
2023-05-03T18:00:27.937Z,7.39
2023-05-03T18:02:54.875Z,7.33
2023-05-03T18:05:23.165Z,7.27
2023-05-03T18:07:50.039Z,7.33
2023-05-03T18:10:17.250Z,7.36
2023-05-03T18:12:44.301Z,7.33
2023-05-03T18:15:11.547Z,7.20
2023-05-03T18:17:38.459Z,7.28
2023-05-03T18:20:07.092Z,7.20
2023-05-03T18:22:35.289Z,7.16
2023-05-03T18:25:02.215Z,7.08
2023-05-03T18:27:29.165Z,6.98
2023-05-03T18:29:55.994Z,6.86
2023-05-03T18:32:23.812Z,6.86
2023-05-03T18:34:50.797Z,6.81
2023-05-03T18:37:18.168Z,6.79
2023-05-03T18:39:46.610Z,6.78
2023-05-03T18:42:13.796Z,6.68
2023-05-03T18:44:40.761Z,6.65
2023-05-03T18:47:08.158Z,6.63
2023-05-03T18:49:35.530Z,6.64
2023-05-03T18:52:02.686Z,6.62
2023-05-03T18:54:29.571Z,6.63
2023-05-03T18:56:58.526Z,6.42
2023-05-03T18:59:26.440Z,6.51
2023-05-03T19:01:59.167Z,6.49
2023-05-03T19:04:29.658Z,6.47
2023-05-03T19:06:57.789Z,6.46
2023-05-03T19:09:30.911Z,6.44
2023-05-03T19:12:07.158Z,6.45
2023-05-03T19:14:38.571Z,6.43
2023-05-03T19:18:14.757Z,6.40
2023-05-03T19:20:39.828Z,6.39
2023-05-03T19:23:06.609Z,6.37
2023-05-03T19:25:33.413Z,6.35
2023-05-03T19:28:01.602Z,6.32
2023-05-03T19:30:28.357Z,6.24
2023-05-03T19:32:55.219Z,6.27
2023-05-03T19:35:22.029Z,6.28
2023-05-03T19:37:48.891Z,6.22
2023-05-03T19:40:15.630Z,6.20
2023-05-03T19:42:42.474Z,6.19
2023-05-03T19:45:11.672Z,6.25
2023-05-03T19:47:38.609Z,6.20
2023-05-03T19:50:06.793Z,6.22
2023-05-03T19:52:33.828Z,6.21
2023-05-03T19:55:00.775Z,6.21
2023-05-03T19:57:27.654Z,6.15
2023-05-03T19:59:54.448Z,6.17
2023-05-03T20:02:24.819Z,6.21
2023-05-03T20:04:52.161Z,6.19
2023-05-03T20:07:18.900Z,6.17
2023-05-03T20:09:45.714Z,6.15
2023-05-03T20:12:13.117Z,6.09
2023-05-03T20:14:40.029Z,6.08
2023-05-03T20:17:07.033Z,6.03
2023-05-03T20:19:35.204Z,6.00
2023-05-03T20:22:01.945Z,5.94
2023-05-03T20:24:28.721Z,5.93
2023-05-03T20:26:55.563Z,5.90
2023-05-03T20:29:22.465Z,5.93
2023-05-03T20:31:50.988Z,5.91
2023-05-03T20:34:17.764Z,5.91
2023-05-03T20:36:46.906Z,5.92
2023-05-03T20:39:13.886Z,5.90
2023-05-03T20:41:40.657Z,5.88
2023-05-03T20:44:07.783Z,5.85
2023-05-03T20:46:34.699Z,5.86
2023-05-03T20:49:01.491Z,5.84
2023-05-03T20:51:28.614Z,5.80
2023-05-03T20:53:56.795Z,5.79
2023-05-03T20:56:23.636Z,5.81
2023-05-03T20:58:50.524Z,5.79
2023-05-03T21:01:17.282Z,5.78
2023-05-03T21:03:44.520Z,5.76
2023-05-03T21:06:11.897Z,5.78
2023-05-03T21:08:38.792Z,5.74
2023-05-03T21:11:06.976Z,5.75
2023-05-03T21:13:33.787Z,5.69
2023-05-03T21:16:00.544Z,5.71
2023-05-03T21:18:27.282Z,5.68
2023-05-03T21:20:54.065Z,5.69
2023-05-03T21:23:20.821Z,5.68
2023-05-03T21:25:47.581Z,5.68
2023-05-03T21:28:15.819Z,5.68
2023-05-03T21:30:42.531Z,5.71
2023-05-03T21:33:09.684Z,5.73
2023-05-03T21:35:36.451Z,5.75
2023-05-03T21:38:03.174Z,5.66
2023-05-03T21:40:29.993Z,5.64
2023-05-03T21:42:56.754Z,5.66
2023-05-03T21:45:24.933Z,5.61
2023-05-03T21:47:51.734Z,5.54
2023-05-03T21:50:18.554Z,5.41
2023-05-03T21:52:45.396Z,5.30
2023-05-03T21:55:12.141Z,5.25
2023-05-03T21:57:39.032Z,5.17
2023-05-03T22:00:07.543Z,4.97
2023-05-03T22:02:36.016Z,4.99
2023-05-03T22:05:02.905Z,4.89
2023-05-03T22:07:29.733Z,4.85
2023-05-03T22:09:56.541Z,4.74
2023-05-03T22:12:24.535Z,4.67
2023-05-03T22:14:51.795Z,4.61
2023-05-03T22:17:18.932Z,4.62
2023-05-03T22:19:47.280Z,4.59
2023-05-03T22:22:14.359Z,4.57
2023-05-03T22:24:41.205Z,4.55
2023-05-03T22:27:08.056Z,4.51
2023-05-03T22:29:34.910Z,4.48
2023-05-03T22:32:01.792Z,4.47
2023-05-03T22:34:28.614Z,4.43
2023-05-03T22:36:56.705Z,4.41
2023-05-03T22:39:23.503Z,4.37
2023-05-03T22:41:50.340Z,4.35
2023-05-03T22:44:17.167Z,4.33
2023-05-03T22:46:43.913Z,4.34
2023-05-03T22:49:10.651Z,4.31
2023-05-03T22:51:37.418Z,4.31
2023-05-03T22:54:05.853Z,4.28
2023-05-03T22:56:32.619Z,4.29
2023-05-03T22:58:59.349Z,4.26
2023-05-03T23:01:26.216Z,4.29
2023-05-03T23:03:53.273Z,4.23
2023-05-03T23:06:20.306Z,4.21
2023-05-03T23:08:47.175Z,4.23
2023-05-03T23:11:15.292Z,4.29
2023-05-03T23:13:42.379Z,4.34
2023-05-03T23:16:09.631Z,4.41
2023-05-03T23:18:36.615Z,4.38
2023-05-03T23:21:03.552Z,4.42
2023-05-03T23:23:30.409Z,4.45
2023-05-03T23:25:57.201Z,4.42
2023-05-03T23:28:26.391Z,4.42
2023-05-03T23:30:53.595Z,4.44
2023-05-03T23:33:20.930Z,4.43
2023-05-03T23:35:48.247Z,4.50
2023-05-03T23:38:15.032Z,4.49
2023-05-03T23:40:41.965Z,4.52
2023-05-03T23:43:08.848Z,4.50
2023-05-03T23:45:36.972Z,4.47
2023-05-03T23:48:04.264Z,4.59
2023-05-03T23:50:31.076Z,4.68
2023-05-03T23:52:57.958Z,4.73
2023-05-03T23:55:24.856Z,4.81
2023-05-03T23:57:51.677Z,4.86
